Nearby METAR Reports

 

KSJC - San Jose, California, USA
Distance from station: NE 9mi, 14km
Updated: Mon, 26-Oct-2020 1:53am EDT
Partly cloudy
Partly cloudy
 Wind from NW
Wind: NW 6 mph , 9 km/h
Temperature: 59°F , 15°C
Dew Point: 39°F , 4°C
Humidity: 48%
Barometer: 29.97 inHg , 1014.9 hPa
Clouds: Partly cloudy
Visibility: 10 miles , 16 km
Cloud details: Partly cloudy 4000 ft
2020/10/26 05:53 KSJC 260553Z 31005KT 10SM SCT040 15/04 A2997 RMK AO2 SLP148 T01500044 10211 20144 53009 $
KNUQ - Moffett Nas/Mtn, California, USA
Distance from station: N 9mi, 14km
Updated: Mon, 26-Oct-2020 2:10am EDT
Clear
Clear
 Wind from NW
Wind: NW 7 mph , 11 km/h
Temperature: 63°F , 17°C
Dew Point: 14°F , -10°C
Humidity: 15%
Barometer: 29.98 inHg , 1015.2 hPa
Clouds: Clear
Visibility: 9 miles , 14 km
2020/10/26 06:10 KNUQ 260610Z AUTO 32006KT 9SM CLR 17/M10 A2998 RMK AO2
 
KPAO - Palo Alto, California, USA
Distance from station: NNW 14mi, 23km
Updated: Sun, 25-Oct-2020 9:47pm EDT
NOT Current
Clear
Clear
 Wind from NW
Wind: NW 7 mph , 11 km/h
Temperature: 61°F , 16°C
Dew Point: 52°F , 11°C
Humidity: 72%
Barometer: 29.92 inHg , 1013.2 hPa
Clouds: Clear
Visibility: 10 miles , 16 km
2020/10/26 01:47 KPAO 260147Z 32006KT 10SM SKC 16/11 A2992 RMK LAST
KRHV - San Jose/Reid, California, USA
Distance from station: ENE 12mi, 19km
Updated: Mon, 26-Oct-2020 12:50am EDT
NOT Current
Clear
Clear
 Wind from NW
Wind: NW 9 mph , 15 km/h
Temperature: 59°F , 15°C
Dew Point: 50°F , 10°C
Humidity: 72%
Barometer: 29.96 inHg , 1014.6 hPa
Clouds: Clear
Visibility: 10 miles , 16 km
2020/10/26 04:50 KRHV 260450Z 31008KT 10SM SKC 15/10 A2996 RMK LAST
 
KOAK - Oakland, California, USA
Distance from station: NNW 31mi, 50km
Updated: Mon, 26-Oct-2020 1:53am EDT
Partly cloudy
Partly cloudy
 Wind from NNE
Wind: NNE 31 mph , 50 km/h, Gust: 37 mph , 59 km/h
Temperature: 66°F , 19°C
Dew Point: 9°F , -13°C
Humidity: 10%
Barometer: 29.97 inHg , 1014.9 hPa
Clouds: Partly cloudy
Visibility: 9 miles , 14 km
Cloud details: Partly cloudy 18000 ft
2020/10/26 05:53 KOAK 260553Z 03027G32KT 9SM SCT180 19/M13 A2997 RMK AO2 PK WND 03032/0549 SLP148 T01941133 10217 20156 51005 $
KSQL - San Carlos Airpo, California, USA
Distance from station: NW 21mi, 34km
Updated: Mon, 26-Oct-2020 2:15am EDT
Mostly cloudy
Mostly cloudy
 Wind from N
Wind: N 18 mph , 30 km/h, Gust: 28 mph , 44 km/h
Temperature: 64°F , 18°C
Dew Point: 25°F , -4°C
Humidity: 22%
Barometer: 29.99 inHg , 1015.6 hPa
Clouds: Mostly cloudy
Visibility: 10 miles , 16 km
Cloud details: Mostly cloudy 2000 ft
2020/10/26 06:15 KSQL 260615Z AUTO 01016G24KT 10SM BKN020 18/M04 A2999 RMK AO2
 
KSFO - San Francisco, California, USA
Distance from station: NW 30mi, 49km
Updated: Mon, 26-Oct-2020 1:56am EDT
Mostly cloudy
Mostly cloudy
 Wind from N
Wind: N 12 mph , 19 km/h
Temperature: 64°F , 18°C
Dew Point: 28°F , -2°C
Humidity: 26%
Barometer: 29.98 inHg , 1015.2 hPa
Clouds: Mostly cloudy
Visibility: 10 miles , 16 km
Cloud details: Mostly cloudy 20000 ft
2020/10/26 05:56 KSFO 260556Z 36010KT 10SM BKN200 18/M02 A2998 RMK AO2 SLP151 T01781017 10189 20133 53010
KE16 - San Martin, California, USA
Distance from station: ESE 27mi, 43km
Updated: Mon, 26-Oct-2020 1:55am EDT
Overcast
Overcast
 Wind from NNE
Wind: NNE 3 mph , 6 km/h
Temperature: 54°F , 12°C
Dew Point: 39°F , 4°C
Humidity: 58%
Barometer: 29.97 inHg , 1014.9 hPa
Clouds: Overcast
Visibility: 10 miles , 16 km
Cloud details: Partly cloudy 2200 ft
Overcast 3300 ft
2020/10/26 05:55 KE16 260555Z AUTO 02003KT 10SM SCT022 OVC033 12/04 A2997 RMK AO2 PWINO PNO
 
KWVI - Watsonville, California, USA
Distance from station: SSE 27mi, 44km
Updated: Mon, 26-Oct-2020 2:00am EDT
Few Clouds
Few Clouds
 Wind from W
Wind: W 3 mph , 6 km/h
Temperature: 48°F , 9°C
Dew Point: 46°F , 8°C
Humidity: 94%
Barometer: 29.96 inHg , 1014.6 hPa
Clouds: Few Clouds
Visibility: 10 miles , 16 km
Cloud details: Few Clouds 700 ft
2020/10/26 06:00 KWVI 260600Z AUTO 26003KT 10SM FEW007 09/08 A2996 RMK AO2 T00940083 $
KHAF - Half Moon Bay, California, USA
Distance from station: WNW 31mi, 50km
Updated: Mon, 26-Oct-2020 2:15am EDT
Few Clouds
Few Clouds
 Wind from WNW
Wind: WNW 9 mph , 15 km/h, Gust: 20 mph , 31 km/h
Temperature: 59°F , 15°C
Dew Point: 41°F , 5°C
Humidity: 51%
Barometer: 29.98 inHg , 1015.2 hPa
Clouds: Few Clouds
Visibility: 9 miles , 14 km
Cloud details: Few Clouds 2300 ft
2020/10/26 06:15 KHAF 260615Z AUTO 30008G17KT 9SM FEW023 15/05 A2998 RMK AO2
 
KHWD - Hayward, California, USA
Distance from station: N 28mi, 44km
Updated: Mon, 26-Oct-2020 1:54am EDT
Clear
Clear
 Wind from NE
Wind: NE 21 mph , 33 km/h, Gust: 39 mph , 63 km/h
Temperature: 66°F , 19°C
Dew Point: 9°F , -13°C
Humidity: 10%
Barometer: 29.94 inHg , 1013.9 hPa
Clouds: Clear
Visibility: 10 miles , 16 km
2020/10/26 05:54 KHWD 260554Z AUTO 04018G34KT 10SM CLR 19/M13 A2994 RMK AO2 PK WND 03040/0529 SLP148 T01891133 10228 20144 56001
KLVK - Livermore, California, USA
Distance from station: NNE 31mi, 51km
Updated: Mon, 26-Oct-2020 1:53am EDT
Clear
Clear
 Wind from N
Wind: N 15 mph , 24 km/h, Gust: 25 mph , 41 km/h
Temperature: 61°F , 16°C
Dew Point: 3°F , -16°C
Humidity: 10%
Barometer: 29.97 inHg , 1014.9 hPa
Clouds: Clear
Visibility: 10 miles , 16 km
2020/10/26 05:53 KLVK 260553Z AUTO 36013G22KT 10SM CLR 16/M16 A2997 RMK AO2 PK WND 35027/0540 SLP145 T01611161 10200 20161 53009 $